createdAt,value
2022-12-23T00:01:27.907Z,83.04
2022-12-23T00:03:58.349Z,83.25
2022-12-23T00:06:25.374Z,83.10
2022-12-23T00:08:58.410Z,83.14
2022-12-23T00:11:26.806Z,83.18
2022-12-23T00:14:18.438Z,82.46
2022-12-23T00:16:48.172Z,82.81
2022-12-23T00:19:14.762Z,82.37
2022-12-23T00:21:41.288Z,82.39
2022-12-23T00:24:07.942Z,82.49
2022-12-23T00:26:34.517Z,82.98
2022-12-23T00:29:01.051Z,83.01
2022-12-23T00:31:27.658Z,83.49
2022-12-23T00:33:54.421Z,83.02
2022-12-23T00:36:25.119Z,82.60
2022-12-23T00:39:12.175Z,82.96
2022-12-23T00:41:59.047Z,82.98
2022-12-23T00:44:25.796Z,83.17
2022-12-23T00:46:52.404Z,82.77
2022-12-23T00:49:40.277Z,83.12
2022-12-23T00:52:10.767Z,82.14
2022-12-23T00:54:37.469Z,82.36
2022-12-23T00:57:04.501Z,82.42
2022-12-23T00:59:31.099Z,82.29
2022-12-23T01:02:17.639Z,83.01
2022-12-23T01:05:04.224Z,82.37
2022-12-23T01:07:30.868Z,82.93
2022-12-23T01:09:57.435Z,82.37
2022-12-23T01:12:23.990Z,82.99
2022-12-23T01:14:50.556Z,82.15
2022-12-23T01:17:18.347Z,82.28
2022-12-23T01:19:45.020Z,82.38
2022-12-23T01:22:11.634Z,82.71
2022-12-23T01:24:38.195Z,82.58
2022-12-23T01:27:04.760Z,82.37
2022-12-23T01:29:31.394Z,82.38
2022-12-23T01:31:58.062Z,82.46
2022-12-23T01:34:24.659Z,83.04
2022-12-23T01:36:51.244Z,82.38
2022-12-23T01:39:17.876Z,82.66
2022-12-23T01:42:04.428Z,81.89
2022-12-23T01:44:50.585Z,81.50
2022-12-23T01:47:32.058Z,82.41
2022-12-23T01:50:04.822Z,82.56
2022-12-23T01:52:36.154Z,82.58
2022-12-23T01:55:02.812Z,83.02
2022-12-23T01:57:29.691Z,82.12
2022-12-23T02:00:16.273Z,82.87
2022-12-23T02:03:03.611Z,82.89
2022-12-23T02:05:30.665Z,82.12
2022-12-23T02:08:17.888Z,83.11
2022-12-23T02:11:04.759Z,82.96
2022-12-23T02:14:03.270Z,82.04
2022-12-23T02:16:34.973Z,82.88
2022-12-23T02:25:15.772Z,81.18
2022-12-23T02:30:25.100Z,82.28
2022-12-23T02:38:45.836Z,81.96
2022-12-23T02:44:02.816Z,82.73
2022-12-23T02:46:38.467Z,81.49
2022-12-23T02:49:12.063Z,82.37
2022-12-23T02:51:44.355Z,82.20
2022-12-23T02:54:18.310Z,83.08
2022-12-23T02:56:49.181Z,81.67
2022-12-23T02:59:20.395Z,82.72
2022-12-23T03:01:49.981Z,82.75
2022-12-23T03:04:16.636Z,81.85
2022-12-23T03:06:48.331Z,82.77
2022-12-23T03:09:24.753Z,82.86
2022-12-23T03:12:02.944Z,83.00
2022-12-23T03:14:53.762Z,82.35
2022-12-23T03:23:03.809Z,83.01
2022-12-23T03:25:35.980Z,82.17
2022-12-23T03:30:46.426Z,82.97
2022-12-23T03:33:18.923Z,82.74
2022-12-23T03:35:55.594Z,82.86
2022-12-23T03:38:23.665Z,83.17
2022-12-23T03:40:56.328Z,82.69
2022-12-23T03:43:33.175Z,82.99
2022-12-23T03:46:01.841Z,83.25
2022-12-23T03:48:41.090Z,82.13
2022-12-23T03:51:14.647Z,83.59
2022-12-23T03:53:49.630Z,83.19
2022-12-23T03:56:23.197Z,82.82
2022-12-23T04:09:36.112Z,83.01
2022-12-23T04:12:03.282Z,83.90
2022-12-23T04:14:30.385Z,82.30
2022-12-23T04:16:58.500Z,82.66
2022-12-23T04:19:25.389Z,83.71
2022-12-23T04:21:54.162Z,83.67
2022-12-23T04:24:20.714Z,83.57
2022-12-23T04:26:47.255Z,82.70
2022-12-23T04:29:13.805Z,83.36
2022-12-23T04:31:40.555Z,83.51
2022-12-23T04:34:07.193Z,83.90
2022-12-23T04:36:33.731Z,84.37
2022-12-23T04:39:00.472Z,83.93
2022-12-23T04:41:27.052Z,82.97
2022-12-23T04:43:53.708Z,83.18
2022-12-23T04:46:20.874Z,82.87
2022-12-23T04:48:47.558Z,83.50
2022-12-23T04:51:14.188Z,83.35
2022-12-23T04:53:40.795Z,83.22
2022-12-23T04:56:07.397Z,83.42
2022-12-23T04:58:34.027Z,84.41
2022-12-23T05:01:10.429Z,84.78
2022-12-23T05:03:38.660Z,83.83
2022-12-23T05:06:05.961Z,84.41
2022-12-23T05:08:33.135Z,84.46
2022-12-23T05:10:59.679Z,84.64
2022-12-23T05:13:26.860Z,84.63
2022-12-23T05:15:54.649Z,84.74
2022-12-23T05:18:22.137Z,83.15
2022-12-23T05:20:49.444Z,84.43
2022-12-23T05:23:16.149Z,84.67
2022-12-23T05:25:42.743Z,83.19
2022-12-23T05:28:09.633Z,84.20
2022-12-23T05:30:36.497Z,84.58
2022-12-23T05:33:03.180Z,84.27
2022-12-23T05:35:29.773Z,83.57
2022-12-23T05:37:57.804Z,84.09
2022-12-23T05:40:29.485Z,84.71
2022-12-23T05:42:57.881Z,83.27
2022-12-23T05:45:24.599Z,84.23
2022-12-23T05:47:51.124Z,83.72
2022-12-23T05:50:18.632Z,83.83
2022-12-23T05:52:45.190Z,83.32
2022-12-23T05:55:11.748Z,84.23
2022-12-23T05:57:38.338Z,82.63
2022-12-23T06:00:05.301Z,82.94
2022-12-23T06:02:31.962Z,83.12
2022-12-23T06:04:58.635Z,83.19
2022-12-23T06:07:25.245Z,84.23
2022-12-23T06:09:51.864Z,83.98
2022-12-23T06:12:18.379Z,83.27
2022-12-23T06:14:44.964Z,83.33
2022-12-23T06:17:11.490Z,82.45
2022-12-23T06:19:38.046Z,82.71
2022-12-23T06:22:04.653Z,83.90
2022-12-23T06:24:31.220Z,82.31
2022-12-23T06:26:57.823Z,83.93
2022-12-23T06:29:24.993Z,83.50
2022-12-23T06:31:51.672Z,84.60
2022-12-23T06:34:18.419Z,83.49
2022-12-23T06:36:44.974Z,83.41
2022-12-23T06:39:11.899Z,83.92
2022-12-23T06:41:38.479Z,83.39
2022-12-23T06:44:05.330Z,85.39
2022-12-23T06:46:32.185Z,84.73
2022-12-23T06:48:58.827Z,84.95
2022-12-23T06:51:25.384Z,83.94
2022-12-23T06:53:51.909Z,83.55
2022-12-23T06:56:18.892Z,84.72
2022-12-23T06:58:45.452Z,85.09
2022-12-23T07:01:12.226Z,85.45
2022-12-23T07:03:38.952Z,85.26
2022-12-23T07:06:05.855Z,84.71
2022-12-23T07:08:32.399Z,85.07
2022-12-23T07:11:00.126Z,84.95
2022-12-23T07:13:27.093Z,84.77
2022-12-23T07:15:53.650Z,85.31
2022-12-23T07:18:22.935Z,85.26
2022-12-23T07:20:50.817Z,85.26
2022-12-23T07:23:17.536Z,85.74
2022-12-23T07:25:44.654Z,86.19
2022-12-23T07:28:11.183Z,85.99
2022-12-23T07:30:37.756Z,85.99
2022-12-23T07:33:04.332Z,87.10
2022-12-23T07:35:30.880Z,86.03
2022-12-23T07:37:57.480Z,85.56
2022-12-23T07:40:24.918Z,86.36
2022-12-23T07:42:56.843Z,87.25
2022-12-23T07:45:24.260Z,86.77
2022-12-23T07:47:54.368Z,86.75
2022-12-23T07:50:22.103Z,86.77
2022-12-23T07:52:48.863Z,85.90
2022-12-23T07:55:15.492Z,86.99
2022-12-23T07:57:42.064Z,86.42
2022-12-23T08:00:11.543Z,86.09
2022-12-23T08:02:38.450Z,86.78
2022-12-23T08:05:05.665Z,84.87
2022-12-23T08:07:32.350Z,85.23
2022-12-23T08:09:58.910Z,85.61
2022-12-23T08:12:26.115Z,84.95
2022-12-23T08:14:52.930Z,84.85
2022-12-23T08:17:21.648Z,84.79
2022-12-23T08:19:48.950Z,85.78
2022-12-23T08:22:16.000Z,84.51
2022-12-23T08:24:42.523Z,84.09
2022-12-23T08:27:09.106Z,85.04
2022-12-23T08:29:36.621Z,84.61
2022-12-23T08:32:03.583Z,84.52
2022-12-23T08:34:30.147Z,85.44
2022-12-23T08:36:56.745Z,84.40
2022-12-23T08:39:23.297Z,84.02
2022-12-23T08:41:49.861Z,85.47
2022-12-23T08:44:17.481Z,84.65
2022-12-23T08:46:44.358Z,85.57
2022-12-23T08:49:11.311Z,83.99
2022-12-23T08:51:38.668Z,84.83
2022-12-23T08:54:06.235Z,84.66
2022-12-23T08:56:36.299Z,83.83
2022-12-23T08:59:04.450Z,83.78
2022-12-23T09:01:33.627Z,84.24
2022-12-23T09:04:05.328Z,84.89
2022-12-23T09:06:36.875Z,85.21
2022-12-23T09:09:04.316Z,84.53
2022-12-23T09:11:31.227Z,84.54
2022-12-23T09:13:59.780Z,84.65
2022-12-23T09:16:26.642Z,85.23
2022-12-23T09:18:53.426Z,84.36
2022-12-23T09:21:21.705Z,84.00
2022-12-23T09:23:48.775Z,83.49
2022-12-23T09:26:21.502Z,84.66
2022-12-23T09:28:48.069Z,85.09
2022-12-23T09:31:15.463Z,84.02
2022-12-23T09:33:42.468Z,84.39
2022-12-23T09:36:09.512Z,83.69
2022-12-23T09:38:36.314Z,84.83
2022-12-23T09:46:51.255Z,83.80
2022-12-23T09:49:19.713Z,84.35
2022-12-23T09:51:47.190Z,85.21
2022-12-23T09:54:38.246Z,84.73
2022-12-23T10:00:11.590Z,84.55
2022-12-23T10:05:56.290Z,84.75
2022-12-23T10:08:33.505Z,84.18
2022-12-23T10:11:07.711Z,85.36
2022-12-23T10:16:19.213Z,84.44
2022-12-23T10:19:14.750Z,84.73
2022-12-23T10:24:23.114Z,84.02
2022-12-23T10:26:56.413Z,84.03
2022-12-23T10:29:25.836Z,84.06
2022-12-23T10:32:32.290Z,84.27
2022-12-23T10:35:28.759Z,84.42
2022-12-23T10:41:08.824Z,83.80
2022-12-23T10:43:55.688Z,83.91
2022-12-23T10:54:49.498Z,84.87
2022-12-23T10:57:18.715Z,84.55
2022-12-23T10:59:45.925Z,84.29
2022-12-23T11:04:50.059Z,84.40
2022-12-23T11:10:16.987Z,83.96
2022-12-23T11:12:47.488Z,84.04
2022-12-23T11:15:36.155Z,84.77
2022-12-23T11:20:46.189Z,85.30
2022-12-23T11:23:31.677Z,84.40
2022-12-23T11:26:02.634Z,84.80
2022-12-23T11:28:31.274Z,84.78
2022-12-23T11:31:12.057Z,84.98
2022-12-23T11:33:45.869Z,83.97
2022-12-23T11:38:54.604Z,84.53
2022-12-23T11:41:23.624Z,85.07
2022-12-23T11:44:28.962Z,84.33
2022-12-23T11:46:55.641Z,84.91
2022-12-23T11:52:19.000Z,84.00
2022-12-23T11:54:54.914Z,84.80
2022-12-23T11:57:30.271Z,84.65
2022-12-23T12:00:01.781Z,84.51
2022-12-23T12:07:43.637Z,83.63
2022-12-23T12:10:18.263Z,83.69
2022-12-23T12:12:48.751Z,84.78
2022-12-23T12:15:27.268Z,84.89
2022-12-23T12:17:56.631Z,84.07
2022-12-23T12:20:38.887Z,84.52
2022-12-23T12:23:13.178Z,84.37
2022-12-23T12:25:46.854Z,83.73
2022-12-23T12:28:21.185Z,83.18
2022-12-23T12:30:53.904Z,83.85
2022-12-23T12:33:30.302Z,84.34
2022-12-23T12:36:09.836Z,84.30
2022-12-23T12:38:39.158Z,84.59
2022-12-23T12:44:33.478Z,83.89
2022-12-23T12:47:28.188Z,84.37
2022-12-23T12:49:59.639Z,83.28
2022-12-23T12:52:28.078Z,84.61
2022-12-23T12:57:36.639Z,82.27
2022-12-23T13:00:06.881Z,83.08
2022-12-23T13:10:57.014Z,84.30
2022-12-23T13:13:31.894Z,84.43
2022-12-23T13:16:27.869Z,84.13
2022-12-23T13:27:03.158Z,83.97
2022-12-23T13:32:33.592Z,83.91
2022-12-23T13:35:39.947Z,83.58
2022-12-23T13:43:49.660Z,84.13
2022-12-23T13:49:08.633Z,84.08
2022-12-23T13:56:58.022Z,83.23
2022-12-23T13:59:39.372Z,83.91
2022-12-23T14:02:42.716Z,84.13
2022-12-23T14:08:08.244Z,82.76
2022-12-23T14:10:36.181Z,83.46
2022-12-23T14:13:08.489Z,84.20
2022-12-23T14:20:55.262Z,84.02
2022-12-23T14:26:25.188Z,83.40
2022-12-23T14:31:41.286Z,83.11
2022-12-23T14:34:30.810Z,83.34
2022-12-23T14:39:59.375Z,82.75
2022-12-23T14:42:43.526Z,83.51
2022-12-23T14:45:42.706Z,83.84
2022-12-23T14:48:49.070Z,83.77
2022-12-23T14:51:37.906Z,83.46
2022-12-23T15:02:21.114Z,84.21
2022-12-23T15:04:55.459Z,84.17
2022-12-23T15:07:28.841Z,84.14
2022-12-23T15:10:01.042Z,83.85
2022-12-23T15:15:25.060Z,83.88
2022-12-23T15:18:12.509Z,83.31
2022-12-23T15:20:39.853Z,84.09
2022-12-23T15:23:14.296Z,83.94
2022-12-23T15:25:46.081Z,83.40
2022-12-23T15:28:18.702Z,83.36
2022-12-23T15:30:51.189Z,83.77
2022-12-23T15:34:00.782Z,83.25
2022-12-23T15:36:10.201Z,83.36
2022-12-23T15:38:38.796Z,83.11
2022-12-23T15:41:15.012Z,83.33
2022-12-23T15:43:43.601Z,83.74
2022-12-23T15:46:17.210Z,83.02
2022-12-23T15:48:44.164Z,83.35
2022-12-23T15:51:30.604Z,83.79
2022-12-23T15:54:06.220Z,84.39
2022-12-23T15:56:38.786Z,83.83
2022-12-23T15:59:06.398Z,84.36
2022-12-23T16:01:38.910Z,84.09
2022-12-23T16:04:08.926Z,84.45
2022-12-23T16:06:36.702Z,84.18
2022-12-23T16:27:39.054Z,84.99
2022-12-23T16:30:15.653Z,85.50
2022-12-23T16:32:50.734Z,85.18
2022-12-23T16:38:27.165Z,85.46
2022-12-23T16:40:56.404Z,84.91
2022-12-23T16:43:24.643Z,85.36
2022-12-23T16:45:56.355Z,85.50
2022-12-23T16:51:02.117Z,85.53
2022-12-23T16:53:29.249Z,85.48
2022-12-23T16:56:00.568Z,85.54
2022-12-23T16:58:27.523Z,85.73
2022-12-23T17:00:54.206Z,85.29
2022-12-23T17:03:21.141Z,85.41
2022-12-23T17:05:48.215Z,85.19
2022-12-23T17:08:14.981Z,85.19
2022-12-23T17:10:44.485Z,85.38
2022-12-23T17:13:14.397Z,85.43
2022-12-23T17:15:41.005Z,85.51
2022-12-23T17:18:18.025Z,85.54
2022-12-23T17:20:48.034Z,85.24
2022-12-23T17:23:32.496Z,85.17
2022-12-23T17:25:59.160Z,85.31
2022-12-23T17:28:32.011Z,84.80
2022-12-23T17:30:59.177Z,85.20
2022-12-23T17:33:29.435Z,85.46
2022-12-23T17:35:56.074Z,85.21
2022-12-23T17:38:22.830Z,85.09
2022-12-23T17:40:50.212Z,84.84
2022-12-23T17:43:18.149Z,84.53
2022-12-23T17:45:45.703Z,85.43
2022-12-23T17:48:19.719Z,85.00
2022-12-23T17:50:46.846Z,84.97
2022-12-23T17:53:14.949Z,84.68
2022-12-23T17:55:41.883Z,84.74
2022-12-23T17:58:08.671Z,84.90
2022-12-23T18:00:35.800Z,85.04
2022-12-23T18:03:05.065Z,85.07
2022-12-23T18:05:35.088Z,84.94
2022-12-23T18:08:03.192Z,84.67
2022-12-23T18:10:34.042Z,84.70
2022-12-23T18:13:04.856Z,84.85
2022-12-23T18:15:36.666Z,84.86
2022-12-23T18:18:15.870Z,85.05
2022-12-23T18:20:46.554Z,84.47
2022-12-23T18:23:15.494Z,85.08
2022-12-23T18:25:42.230Z,85.31
2022-12-23T18:28:11.118Z,84.67
2022-12-23T18:30:38.454Z,84.46
2022-12-23T18:33:08.719Z,84.70
2022-12-23T18:35:39.621Z,85.05
2022-12-23T18:38:06.251Z,84.94
2022-12-23T18:40:33.283Z,84.75
2022-12-23T18:43:00.642Z,84.36
2022-12-23T18:45:37.709Z,84.55
2022-12-23T18:48:07.333Z,84.37
2022-12-23T18:50:35.994Z,84.56
2022-12-23T18:53:02.996Z,84.25
2022-12-23T18:55:30.442Z,84.58
2022-12-23T18:57:58.999Z,84.12
2022-12-23T19:00:28.665Z,84.50
2022-12-23T19:02:56.311Z,84.25
2022-12-23T19:05:26.863Z,84.09
2022-12-23T19:07:56.158Z,83.99
2022-12-23T19:10:27.239Z,84.09
2022-12-23T19:12:54.524Z,84.48
2022-12-23T19:15:21.983Z,84.62
2022-12-23T19:17:50.340Z,84.51
2022-12-23T19:20:18.969Z,84.28
2022-12-23T19:22:46.981Z,84.06
2022-12-23T19:25:16.733Z,83.97
2022-12-23T19:27:44.334Z,83.92
2022-12-23T19:30:14.579Z,83.47
2022-12-23T19:32:41.220Z,83.75
2022-12-23T19:35:08.515Z,83.69
2022-12-23T19:37:36.400Z,84.01
2022-12-23T19:40:04.253Z,84.11
2022-12-23T19:42:30.872Z,83.82
2022-12-23T19:44:57.481Z,83.32
2022-12-23T19:47:24.134Z,83.44
2022-12-23T19:49:50.657Z,83.67
2022-12-23T19:52:17.298Z,83.55
2022-12-23T19:54:43.930Z,83.65
2022-12-23T19:57:10.494Z,83.78
2022-12-23T19:59:37.306Z,83.08
2022-12-23T20:02:03.962Z,83.11
2022-12-23T20:04:31.976Z,83.25
2022-12-23T20:06:58.518Z,83.58
2022-12-23T20:09:25.109Z,83.00
2022-12-23T20:11:51.643Z,83.56
2022-12-23T20:14:19.561Z,82.76
2022-12-23T20:16:48.370Z,83.17
2022-12-23T20:19:17.140Z,83.61
2022-12-23T20:21:45.802Z,83.14
2022-12-23T20:24:14.369Z,83.19
2022-12-23T20:26:41.543Z,83.55
2022-12-23T20:29:09.253Z,82.67
2022-12-23T20:31:37.761Z,83.53
2022-12-23T20:34:07.415Z,82.85
2022-12-23T20:36:36.098Z,83.19
2022-12-23T20:39:03.784Z,82.43
2022-12-23T20:41:31.461Z,83.37
2022-12-23T20:46:45.532Z,83.35
2022-12-23T20:49:12.732Z,82.96
2022-12-23T20:51:39.241Z,83.64
2022-12-23T20:54:05.815Z,82.63
2022-12-23T20:56:32.437Z,83.73
2022-12-23T20:59:00.320Z,83.73
2022-12-23T21:01:30.932Z,83.87
2022-12-23T21:03:59.458Z,82.78
2022-12-23T21:06:26.599Z,82.54
2022-12-23T21:08:55.789Z,82.65
2022-12-23T21:11:23.413Z,83.57
2022-12-23T21:13:51.114Z,83.38
2022-12-23T21:16:17.940Z,83.00
2022-12-23T21:18:50.557Z,83.06
2022-12-23T21:21:17.197Z,82.69
2022-12-23T21:23:44.024Z,83.28
2022-12-23T21:26:14.346Z,82.62
2022-12-23T21:28:41.576Z,83.42
2022-12-23T21:31:08.575Z,82.65
2022-12-23T21:33:36.932Z,83.67
2022-12-23T21:36:04.105Z,83.53
2022-12-23T21:38:33.167Z,82.88
2022-12-23T21:41:01.609Z,83.65
2022-12-23T21:43:28.678Z,83.89
2022-12-23T21:45:57.328Z,83.88
2022-12-23T21:48:24.000Z,82.64
2022-12-23T21:50:50.621Z,83.28
2022-12-23T21:53:17.204Z,82.82
2022-12-23T21:55:43.734Z,83.02
2022-12-23T21:58:10.299Z,83.73
2022-12-23T22:00:36.929Z,84.17
2022-12-23T22:03:03.673Z,82.98
2022-12-23T22:05:30.219Z,83.61
2022-12-23T22:07:56.742Z,83.24
2022-12-23T22:10:23.325Z,82.70
2022-12-23T22:12:49.872Z,82.62
2022-12-23T22:15:17.458Z,83.95
2022-12-23T22:17:44.006Z,83.59
2022-12-23T22:20:11.197Z,82.72
2022-12-23T22:22:37.727Z,83.32
2022-12-23T22:25:04.654Z,82.60
2022-12-23T22:27:31.224Z,84.21
2022-12-23T22:29:57.758Z,82.77
2022-12-23T22:32:24.325Z,82.86
2022-12-23T22:34:50.878Z,82.90
2022-12-23T22:37:17.512Z,82.65
2022-12-23T22:39:44.152Z,82.77
2022-12-23T22:42:10.743Z,82.31
2022-12-23T22:44:37.305Z,82.50
2022-12-23T22:47:03.922Z,82.28
2022-12-23T22:49:30.548Z,83.61
2022-12-23T22:51:57.087Z,82.20
2022-12-23T22:54:23.634Z,83.37
2022-12-23T22:56:50.178Z,82.46
2022-12-23T22:59:20.552Z,83.92
2022-12-23T23:01:47.757Z,83.54
2022-12-23T23:04:14.403Z,83.16
2022-12-23T23:06:41.922Z,82.37
2022-12-23T23:09:12.739Z,82.18
2022-12-23T23:11:39.754Z,83.75
2022-12-23T23:14:06.367Z,83.86
2022-12-23T23:16:33.551Z,83.82
2022-12-23T23:19:00.643Z,83.22
2022-12-23T23:21:27.299Z,82.89
2022-12-23T23:23:53.871Z,84.22
2022-12-23T23:26:20.897Z,83.60
2022-12-23T23:28:47.880Z,84.56
2022-12-23T23:31:41.000Z,84.42
2022-12-23T23:34:01.131Z,84.61
2022-12-23T23:36:27.752Z,84.53
2022-12-23T23:38:54.400Z,83.81
2022-12-23T23:41:23.624Z,84.43
2022-12-23T23:43:51.207Z,84.88
2022-12-23T23:46:18.019Z,83.55
2022-12-23T23:48:44.690Z,83.33
2022-12-23T23:51:12.546Z,83.43
2022-12-23T23:53:39.345Z,83.35
2022-12-23T23:56:07.007Z,83.30
2022-12-23T23:58:35.481Z,83.53
